Rechercher aéroport 
image banner adimage banner adimage banner ad
image banner ad

KPTW - Heritage Field

Situé à Pottstown, United States

ICAO - PTW, IATA -

Données fournies par Airmate  

Information générale

Coordonnées: N40°14'22" W75°33'24"
Élévation : 308 feet MSL.
Variation magnétique : -12° East
Voir autres Aéroports à Pennsylvania

Données opérationnelles

Special qualification required
Heure actuelle UTC:
Heure actuelle locale:
Météo
METAR: KPTW 291635Z AUTO VRB05KT 10SM BKN021 OVC028 24/20 A2997 RMK AO2 T02440200 $
Voir NOTAMs / SUP AIP / TFR affectant cet aéroport [VIEW]
Fréquences de communication: [VIEW]

Pistes:

Identifiant RWYQFULongueur (ft)Largeur (ft)SurfaceLDA (ft)
1084°337175ASPH
28264°337175ASPH

Coordonnées de l'aéroport

Adresse: Pottstown United States

Autres services d'aviation

Écoles de pilotage

Limerick Flight Center / Fare Share Ltd

Limerick Flight Center / Fare Share Ltd
winneellis@comcast.net+1(610)495-6366

Vue satellite de KPTW